createdAt,value
2023-04-17T00:05:00.602Z,95976.09
2023-04-17T00:10:02.120Z,95971.06
2023-04-17T00:15:03.918Z,95965.69
2023-04-17T00:20:06.057Z,95965.03
2023-04-17T00:25:08.231Z,95962.66
2023-04-17T00:30:10.086Z,95960.38
2023-04-17T00:35:12.639Z,95955.47
2023-04-17T00:40:14.482Z,95947.09
2023-04-17T00:45:16.007Z,95952.75
2023-04-17T00:50:17.839Z,95954.56
2023-04-17T00:55:20.365Z,95943.06
2023-04-17T01:00:21.903Z,95947.19
2023-04-17T01:05:25.329Z,95941.56
2023-04-17T01:10:26.918Z,95924.91
2023-04-17T01:15:28.604Z,95932.81
2023-04-17T01:20:30.488Z,95929.06
2023-04-17T01:25:32.069Z,95935.03
2023-04-17T01:30:33.754Z,95933.81
2023-04-17T01:35:38.386Z,95922.44
2023-04-17T01:40:39.845Z,95928.09
2023-04-17T01:45:41.326Z,95933.00
2023-04-17T01:50:42.774Z,95925.44
2023-04-17T01:55:44.436Z,95936.88
2023-04-17T02:00:47.059Z,95928.13
2023-04-17T02:05:48.597Z,95931.91
2023-04-17T02:10:50.296Z,95926.34
2023-04-17T02:15:51.835Z,95924.13
2023-04-17T02:20:53.400Z,95914.56
2023-04-17T02:25:54.964Z,95918.56
2023-04-17T02:30:56.543Z,95925.56
2023-04-17T02:35:58.044Z,95924.28
2023-04-17T02:41:07.036Z,95931.34
2023-04-17T02:46:09.265Z,95928.22
2023-04-17T02:51:10.905Z,95928.44
2023-04-17T02:56:12.413Z,95926.50
2023-04-17T03:01:14.106Z,95921.84
2023-04-17T03:06:18.573Z,95911.59
2023-04-17T03:11:20.114Z,95910.91
2023-04-17T03:16:21.712Z,95906.09
2023-04-17T03:21:23.469Z,95911.03
2023-04-17T03:26:25.307Z,95918.31
2023-04-17T03:31:26.985Z,95915.13
2023-04-17T03:36:28.549Z,95916.31
2023-04-17T03:41:30.417Z,95919.06
2023-04-17T03:46:32.402Z,95918.25
2023-04-17T03:51:34.012Z,95921.00
2023-04-17T03:56:43.125Z,95928.09
2023-04-17T04:01:46.800Z,95920.25
2023-04-17T04:06:53.130Z,95921.19
2023-04-17T04:11:55.604Z,95929.66
2023-04-17T04:16:57.194Z,95932.88
2023-04-17T04:21:59.944Z,95933.84
2023-04-17T04:27:09.715Z,95934.28
2023-04-17T04:32:11.378Z,95932.94
2023-04-17T04:37:16.845Z,95934.38
2023-04-17T04:42:19.920Z,95937.13
2023-04-17T04:47:29.511Z,95940.84
2023-04-17T04:52:31.085Z,95931.53
2023-04-17T04:57:37.216Z,95943.44
2023-04-17T05:02:39.118Z,95949.41
2023-04-17T05:07:43.866Z,95953.97
2023-04-17T05:12:49.153Z,95960.53
2023-04-17T05:17:51.366Z,95953.53
2023-04-17T05:22:53.044Z,95947.34
2023-04-17T05:27:56.737Z,95954.81
2023-04-17T05:32:58.619Z,95961.50
2023-04-17T05:38:23.429Z,95965.69
2023-04-17T05:43:25.025Z,95964.34
2023-04-17T05:48:29.228Z,95967.50
2023-04-17T05:53:31.166Z,95971.41
2023-04-17T05:58:33.888Z,95964.16
2023-04-17T06:03:35.629Z,95976.94
2023-04-17T06:08:47.800Z,95973.97
2023-04-17T06:13:49.404Z,95972.09
2023-04-17T06:18:52.629Z,95979.91
2023-04-17T06:23:55.219Z,95989.44
2023-04-17T06:28:56.640Z,95990.56
2023-04-17T06:33:59.626Z,95997.22
2023-04-17T06:39:04.924Z,95992.31
2023-04-17T06:44:07.419Z,95995.31
2023-04-17T06:49:20.327Z,95996.38
2023-04-17T06:54:21.942Z,95993.78
2023-04-17T06:59:23.450Z,95999.63
2023-04-17T07:04:24.976Z,96001.47
2023-04-17T07:09:26.509Z,96011.31
2023-04-17T07:14:27.956Z,96000.94
2023-04-17T07:19:29.383Z,96009.53
2023-04-17T07:24:30.908Z,96007.25
2023-04-17T07:29:32.694Z,96008.97
2023-04-17T07:34:34.096Z,96003.75
2023-04-17T07:39:35.662Z,96007.25
2023-04-17T07:44:38.904Z,96015.31
2023-04-17T07:49:40.413Z,96017.13
2023-04-17T07:54:41.873Z,96019.91
2023-04-17T07:59:43.618Z,96028.31
2023-04-17T08:04:45.796Z,96019.59
2023-04-17T08:09:47.478Z,96028.50
2023-04-17T08:14:48.994Z,96023.09
2023-04-17T08:19:50.456Z,96023.78
2023-04-17T08:24:52.188Z,96027.13
2023-04-17T08:29:54.276Z,96025.00
2023-04-17T08:34:58.044Z,96027.22
2023-04-17T08:39:59.549Z,96027.56
2023-04-17T08:45:04.706Z,96034.34
2023-04-17T08:50:07.539Z,96040.09
2023-04-17T08:55:11.590Z,96038.25
2023-04-17T09:00:13.648Z,96038.34
2023-04-17T09:05:24.787Z,96031.63
2023-04-17T09:10:35.638Z,96022.31
2023-04-17T09:15:37.198Z,96017.88
2023-04-17T09:20:49.338Z,96016.41
2023-04-17T09:26:06.173Z,96012.69
2023-04-17T09:31:24.867Z,96015.28
2023-04-17T09:36:27.944Z,96015.63
2023-04-17T09:41:30.584Z,96013.72
2023-04-17T09:46:36.286Z,96012.53
2023-04-17T09:51:38.124Z,96015.41
2023-04-17T09:56:39.734Z,96009.50
2023-04-17T10:01:41.755Z,96010.13
2023-04-17T10:06:43.228Z,96015.84
2023-04-17T10:11:46.911Z,96009.72
2023-04-17T10:16:48.765Z,96005.38
2023-04-17T10:22:18.035Z,96005.31
2023-04-17T10:27:25.230Z,96002.22
2023-04-17T10:32:27.771Z,96002.69
2023-04-17T10:37:47.544Z,95992.50
2023-04-17T10:43:07.654Z,95983.28
2023-04-17T10:48:19.916Z,95971.56
2023-04-17T10:53:42.279Z,95973.06
2023-04-17T10:58:55.615Z,95971.09
2023-04-17T11:03:57.705Z,95968.75
2023-04-17T11:09:00.055Z,95964.59
2023-04-17T11:14:05.696Z,95953.25
2023-04-17T11:19:11.895Z,95956.91
2023-04-17T11:24:13.680Z,95934.38
2023-04-17T11:29:16.225Z,95951.50
2023-04-17T11:34:18.626Z,95941.00
2023-04-17T11:39:22.470Z,95939.84
2023-04-17T11:44:25.264Z,95940.34
2023-04-17T11:49:28.513Z,95936.69
2023-04-17T11:54:31.985Z,95932.88
2023-04-17T11:59:38.174Z,95928.03
2023-04-17T12:04:40.181Z,95930.53
2023-04-17T12:09:42.143Z,95924.69
2023-04-17T12:14:43.654Z,95931.69
2023-04-17T12:19:45.117Z,95923.69
2023-04-17T12:24:46.568Z,95921.03
2023-04-17T12:29:48.066Z,95922.06
2023-04-17T12:34:49.540Z,95908.56
2023-04-17T12:39:51.044Z,95902.38
2023-04-17T12:44:52.476Z,95898.22
2023-04-17T12:49:53.887Z,95897.06
2023-04-17T12:54:55.431Z,95895.75
2023-04-17T12:59:56.879Z,95888.59
2023-04-17T13:04:58.333Z,95879.56
2023-04-17T13:09:59.923Z,95873.59
2023-04-17T13:15:01.360Z,95872.53
2023-04-17T13:20:02.929Z,95877.50
2023-04-17T13:25:06.138Z,95863.78
2023-04-17T13:30:08.297Z,95857.72
2023-04-17T13:35:10.147Z,95848.16
2023-04-17T13:40:11.921Z,95838.09
2023-04-17T13:45:13.435Z,95840.16
2023-04-17T13:50:14.942Z,95827.38
2023-04-17T13:55:16.510Z,95843.84
2023-04-17T14:00:18.305Z,95829.00
2023-04-17T14:05:19.769Z,95829.75
2023-04-17T14:10:21.216Z,95830.81
2023-04-17T14:15:22.998Z,95833.22
2023-04-17T14:20:25.050Z,95833.88
2023-04-17T14:25:26.514Z,95825.97
2023-04-17T14:30:28.013Z,95831.44
2023-04-17T14:35:29.528Z,95827.78
2023-04-17T14:40:31.096Z,95830.31
2023-04-17T14:45:32.574Z,95831.00
2023-04-17T14:50:34.089Z,95828.78
2023-04-17T14:55:35.643Z,95821.09
2023-04-17T15:00:37.124Z,95820.69
2023-04-17T15:05:38.533Z,95825.81
2023-04-17T15:10:50.219Z,95820.63
2023-04-17T15:15:52.974Z,95834.19
2023-04-17T15:20:54.486Z,95828.78
2023-04-17T15:25:56.875Z,95845.84
2023-04-17T15:30:58.369Z,95837.22
2023-04-17T15:36:00.165Z,95836.09
2023-04-17T15:41:01.621Z,95834.13
2023-04-17T15:46:03.339Z,95833.59
2023-04-17T15:51:05.141Z,95841.94
2023-04-17T15:56:07.825Z,95848.16
2023-04-17T16:01:09.246Z,95843.69
2023-04-17T16:06:10.737Z,95841.72
2023-04-17T16:11:12.204Z,95838.91
2023-04-17T16:16:13.749Z,95838.75
2023-04-17T16:21:15.320Z,95843.03
2023-04-17T16:26:16.830Z,95836.84
2023-04-17T16:31:18.324Z,95836.31
2023-04-17T16:36:19.773Z,95834.47
2023-04-17T16:41:21.203Z,95831.50
2023-04-17T16:46:28.577Z,95827.34
2023-04-17T16:51:41.579Z,95831.34
2023-04-17T16:56:43.087Z,95841.00
2023-04-17T17:01:44.522Z,95846.50
2023-04-17T17:06:45.950Z,95851.34
2023-04-17T17:11:47.635Z,95855.84
2023-04-17T17:16:49.199Z,95855.84
2023-04-17T17:21:50.737Z,95847.22
2023-04-17T17:26:52.206Z,95858.88
2023-04-17T17:31:53.682Z,95852.88
2023-04-17T17:36:55.278Z,95848.88
2023-04-17T17:41:56.701Z,95860.13
2023-04-17T17:46:58.192Z,95856.28
2023-04-17T17:51:59.717Z,95860.72
2023-04-17T17:57:01.311Z,95860.91
2023-04-17T18:02:02.968Z,95864.19
2023-04-17T18:07:04.505Z,95869.59
2023-04-17T18:12:06.284Z,95868.56
2023-04-17T18:17:07.732Z,95872.19
2023-04-17T18:22:09.646Z,95874.13
2023-04-17T18:27:11.140Z,95879.22
2023-04-17T18:32:12.695Z,95879.44
2023-04-17T18:37:15.065Z,95884.38
2023-04-17T18:42:18.434Z,95891.03
2023-04-17T18:47:20.012Z,95896.06
2023-04-17T18:52:21.691Z,95901.44
2023-04-17T18:57:23.209Z,95905.41
2023-04-17T19:02:24.925Z,95906.63
2023-04-17T19:07:26.438Z,95912.19
2023-04-17T19:12:27.934Z,95916.91
2023-04-17T19:17:29.498Z,95916.59
2023-04-17T19:22:30.926Z,95927.63
2023-04-17T19:27:32.489Z,95921.97
2023-04-17T19:32:34.015Z,95928.16
2023-04-17T19:37:35.525Z,95927.84
2023-04-17T19:42:36.928Z,95928.28
2023-04-17T19:47:38.698Z,95937.41
2023-04-17T19:52:40.209Z,95938.31
2023-04-17T19:57:41.658Z,95930.66
2023-04-17T20:02:43.541Z,95939.75
2023-04-17T20:07:45.164Z,95930.50
2023-04-17T20:12:46.629Z,95940.13
2023-04-17T20:17:48.143Z,95932.56
2023-04-17T20:22:49.698Z,95933.25
2023-04-17T20:27:51.202Z,95932.78
2023-04-17T20:32:52.799Z,95934.31
2023-04-17T20:37:54.374Z,95932.09
2023-04-17T20:42:55.854Z,95936.16
2023-04-17T20:47:57.494Z,95936.38
2023-04-17T20:52:58.943Z,95928.84
2023-04-17T20:58:00.367Z,95925.84
2023-04-17T21:03:02.099Z,95924.00
2023-04-17T21:08:04.065Z,95923.84
2023-04-17T21:13:05.554Z,95916.91
2023-04-17T21:18:07.010Z,95916.09
2023-04-17T21:23:08.613Z,95914.13
2023-04-17T21:28:10.044Z,95904.63
2023-04-17T21:33:11.553Z,95910.78
2023-04-17T21:38:13.052Z,95908.03
2023-04-17T21:43:14.656Z,95913.03
2023-04-17T21:48:16.222Z,95909.56
2023-04-17T21:53:17.750Z,95905.91
2023-04-17T21:58:19.190Z,95905.59
2023-04-17T22:03:21.716Z,95898.91
2023-04-17T22:08:23.873Z,95901.59
2023-04-17T22:13:25.346Z,95901.38
2023-04-17T22:18:26.854Z,95891.34
2023-04-17T22:23:28.354Z,95901.13
2023-04-17T22:28:31.139Z,95890.53
2023-04-17T22:33:32.546Z,95888.31
2023-04-17T22:38:33.954Z,95893.38
2023-04-17T22:43:35.393Z,95894.25
2023-04-17T22:48:36.856Z,95886.75
2023-04-17T22:53:38.844Z,95885.63
2023-04-17T22:58:40.335Z,95886.16
2023-04-17T23:03:41.767Z,95879.50
2023-04-17T23:08:43.181Z,95883.09
2023-04-17T23:13:44.606Z,95882.66
2023-04-17T23:18:46.042Z,95874.97
2023-04-17T23:23:48.490Z,95875.25
2023-04-17T23:28:50.232Z,95870.91
2023-04-17T23:33:51.711Z,95867.13
2023-04-17T23:38:53.223Z,95868.38
2023-04-17T23:43:54.649Z,95862.09
2023-04-17T23:48:56.119Z,95863.06
2023-04-17T23:53:59.411Z,95858.28
2023-04-17T23:59:00.877Z,95858.84
